sensor_id;sensor_type;location;lat;lon;timestamp;P1;durP1;ratioP1;P2;durP2;ratioP2
23068;SDS011;11702;50.856;4.348;2022-11-11T00:00:58;18.77;;;10.43;;
23068;SDS011;11702;50.856;4.348;2022-11-11T00:03:25;18.92;;;11.48;;
23068;SDS011;11702;50.856;4.348;2022-11-11T00:05:50;17.83;;;10.38;;
23068;SDS011;11702;50.856;4.348;2022-11-11T00:08:16;17.33;;;10.10;;
23068;SDS011;11702;50.856;4.348;2022-11-11T00:10:42;16.67;;;10.15;;
23068;SDS011;11702;50.856;4.348;2022-11-11T00:13:07;14.65;;;10.38;;
23068;SDS011;11702;50.856;4.348;2022-11-11T00:15:35;18.00;;;10.18;;
23068;SDS011;11702;50.856;4.348;2022-11-11T00:18:03;17.17;;;10.60;;
23068;SDS011;11702;50.856;4.348;2022-11-11T00:20:47;23.63;;;11.32;;
23068;SDS011;11702;50.856;4.348;2022-11-11T00:23:31;22.85;;;10.82;;
23068;SDS011;11702;50.856;4.348;2022-11-11T00:26:19;18.88;;;11.25;;
23068;SDS011;11702;50.856;4.348;2022-11-11T00:28:44;21.15;;;11.85;;
23068;SDS011;11702;50.856;4.348;2022-11-11T00:31:11;20.52;;;11.52;;
23068;SDS011;11702;50.856;4.348;2022-11-11T00:33:37;15.55;;;10.40;;
23068;SDS011;11702;50.856;4.348;2022-11-11T00:36:04;20.65;;;11.57;;
23068;SDS011;11702;50.856;4.348;2022-11-11T00:38:30;16.77;;;9.60;;
23068;SDS011;11702;50.856;4.348;2022-11-11T00:43:37;14.75;;;8.98;;
23068;SDS011;11702;50.856;4.348;2022-11-11T00:46:03;13.30;;;8.90;;
23068;SDS011;11702;50.856;4.348;2022-11-11T00:48:48;14.30;;;8.65;;
23068;SDS011;11702;50.856;4.348;2022-11-11T00:51:32;14.35;;;8.18;;
23068;SDS011;11702;50.856;4.348;2022-11-11T00:53:58;13.43;;;8.13;;
23068;SDS011;11702;50.856;4.348;2022-11-11T00:56:24;16.20;;;8.48;;
23068;SDS011;11702;50.856;4.348;2022-11-11T00:58:49;17.52;;;8.75;;
23068;SDS011;11702;50.856;4.348;2022-11-11T01:01:16;14.48;;;9.07;;
23068;SDS011;11702;50.856;4.348;2022-11-11T01:03:41;16.67;;;9.00;;
23068;SDS011;11702;50.856;4.348;2022-11-11T01:06:08;14.40;;;7.97;;
23068;SDS011;11702;50.856;4.348;2022-11-11T01:08:35;15.23;;;8.00;;
23068;SDS011;11702;50.856;4.348;2022-11-11T01:11:02;14.40;;;8.02;;
23068;SDS011;11702;50.856;4.348;2022-11-11T01:13:28;11.55;;;7.45;;
23068;SDS011;11702;50.856;4.348;2022-11-11T01:16:03;14.80;;;8.00;;
23068;SDS011;11702;50.856;4.348;2022-11-11T01:18:31;17.10;;;8.65;;
23068;SDS011;11702;50.856;4.348;2022-11-11T01:21:01;10.23;;;7.53;;
23068;SDS011;11702;50.856;4.348;2022-11-11T01:23:38;15.52;;;7.07;;
23068;SDS011;11702;50.856;4.348;2022-11-11T01:26:06;14.60;;;8.25;;
23068;SDS011;11702;50.856;4.348;2022-11-11T01:28:40;14.30;;;7.95;;
23068;SDS011;11702;50.856;4.348;2022-11-11T01:31:07;14.93;;;8.43;;
23068;SDS011;11702;50.856;4.348;2022-11-11T01:33:35;13.40;;;8.75;;
23068;SDS011;11702;50.856;4.348;2022-11-11T01:36:05;14.75;;;8.60;;
23068;SDS011;11702;50.856;4.348;2022-11-11T01:38:33;15.85;;;9.48;;
23068;SDS011;11702;50.856;4.348;2022-11-11T01:40:59;16.90;;;9.52;;
23068;SDS011;11702;50.856;4.348;2022-11-11T01:43:25;18.05;;;10.68;;
23068;SDS011;11702;50.856;4.348;2022-11-11T01:45:55;18.90;;;10.25;;
23068;SDS011;11702;50.856;4.348;2022-11-11T01:48:35;13.75;;;8.75;;
23068;SDS011;11702;50.856;4.348;2022-11-11T01:51:27;15.10;;;9.40;;
23068;SDS011;11702;50.856;4.348;2022-11-11T01:54:12;15.48;;;10.10;;
23068;SDS011;11702;50.856;4.348;2022-11-11T01:56:41;15.68;;;10.25;;
23068;SDS011;11702;50.856;4.348;2022-11-11T01:59:11;16.85;;;9.50;;
23068;SDS011;11702;50.856;4.348;2022-11-11T02:01:41;18.80;;;10.35;;
23068;SDS011;11702;50.856;4.348;2022-11-11T02:04:08;16.77;;;10.30;;
23068;SDS011;11702;50.856;4.348;2022-11-11T02:06:54;15.85;;;10.65;;
23068;SDS011;11702;50.856;4.348;2022-11-11T02:09:22;15.88;;;10.15;;
23068;SDS011;11702;50.856;4.348;2022-11-11T02:11:50;16.90;;;9.85;;
23068;SDS011;11702;50.856;4.348;2022-11-11T02:14:39;19.02;;;9.95;;
23068;SDS011;11702;50.856;4.348;2022-11-11T02:17:08;16.05;;;10.38;;
23068;SDS011;11702;50.856;4.348;2022-11-11T02:19:53;20.10;;;11.18;;
23068;SDS011;11702;50.856;4.348;2022-11-11T02:25:09;19.75;;;13.60;;
23068;SDS011;11702;50.856;4.348;2022-11-11T02:27:39;20.13;;;13.85;;
23068;SDS011;11702;50.856;4.348;2022-11-11T02:30:08;22.75;;;13.85;;
23068;SDS011;11702;50.856;4.348;2022-11-11T02:35:19;22.20;;;13.07;;
23068;SDS011;11702;50.856;4.348;2022-11-11T02:37:47;28.60;;;12.65;;
23068;SDS011;11702;50.856;4.348;2022-11-11T02:40:25;18.75;;;11.65;;
23068;SDS011;11702;50.856;4.348;2022-11-11T02:42:57;16.52;;;11.65;;
23068;SDS011;11702;50.856;4.348;2022-11-11T02:45:23;16.02;;;10.90;;
23068;SDS011;11702;50.856;4.348;2022-11-11T02:47:49;19.58;;;10.25;;
23068;SDS011;11702;50.856;4.348;2022-11-11T02:50:14;17.80;;;11.70;;
23068;SDS011;11702;50.856;4.348;2022-11-11T02:52:40;22.50;;;11.93;;
23068;SDS011;11702;50.856;4.348;2022-11-11T02:55:06;24.35;;;11.70;;
23068;SDS011;11702;50.856;4.348;2022-11-11T02:57:33;16.30;;;10.32;;
23068;SDS011;11702;50.856;4.348;2022-11-11T03:00:00;19.30;;;10.10;;
23068;SDS011;11702;50.856;4.348;2022-11-11T03:02:27;20.65;;;9.95;;
23068;SDS011;11702;50.856;4.348;2022-11-11T03:04:53;16.13;;;9.73;;
23068;SDS011;11702;50.856;4.348;2022-11-11T03:07:20;13.05;;;8.82;;
23068;SDS011;11702;50.856;4.348;2022-11-11T03:09:46;15.73;;;8.93;;
23068;SDS011;11702;50.856;4.348;2022-11-11T03:12:12;12.65;;;9.18;;
23068;SDS011;11702;50.856;4.348;2022-11-11T03:14:37;11.35;;;8.60;;
23068;SDS011;11702;50.856;4.348;2022-11-11T03:17:03;16.10;;;9.68;;
23068;SDS011;11702;50.856;4.348;2022-11-11T03:19:48;17.92;;;9.55;;
23068;SDS011;11702;50.856;4.348;2022-11-11T03:22:13;14.48;;;9.45;;
23068;SDS011;11702;50.856;4.348;2022-11-11T03:24:39;17.55;;;10.23;;
23068;SDS011;11702;50.856;4.348;2022-11-11T03:27:43;12.90;;;9.20;;
23068;SDS011;11702;50.856;4.348;2022-11-11T03:30:09;14.23;;;9.40;;
23068;SDS011;11702;50.856;4.348;2022-11-11T03:32:35;16.65;;;9.00;;
23068;SDS011;11702;50.856;4.348;2022-11-11T03:35:00;13.65;;;9.13;;
23068;SDS011;11702;50.856;4.348;2022-11-11T03:37:27;12.88;;;8.70;;
23068;SDS011;11702;50.856;4.348;2022-11-11T03:40:11;10.73;;;8.27;;
23068;SDS011;11702;50.856;4.348;2022-11-11T03:42:37;14.70;;;8.10;;
23068;SDS011;11702;50.856;4.348;2022-11-11T03:45:02;14.68;;;9.20;;
23068;SDS011;11702;50.856;4.348;2022-11-11T03:47:28;14.63;;;8.70;;
23068;SDS011;11702;50.856;4.348;2022-11-11T03:49:54;11.18;;;8.63;;
23068;SDS011;11702;50.856;4.348;2022-11-11T03:52:19;11.90;;;8.35;;
23068;SDS011;11702;50.856;4.348;2022-11-11T03:54:45;14.73;;;8.63;;
23068;SDS011;11702;50.856;4.348;2022-11-11T03:57:11;10.73;;;7.47;;
23068;SDS011;11702;50.856;4.348;2022-11-11T03:59:54;12.32;;;7.82;;
23068;SDS011;11702;50.856;4.348;2022-11-11T04:02:20;10.05;;;7.28;;
23068;SDS011;11702;50.856;4.348;2022-11-11T04:05:04;13.10;;;7.60;;
23068;SDS011;11702;50.856;4.348;2022-11-11T04:07:49;12.80;;;7.45;;
23068;SDS011;11702;50.856;4.348;2022-11-11T04:10:34;9.52;;;6.70;;
23068;SDS011;11702;50.856;4.348;2022-11-11T04:12:59;13.77;;;7.53;;
23068;SDS011;11702;50.856;4.348;2022-11-11T04:15:44;11.90;;;6.65;;
23068;SDS011;11702;50.856;4.348;2022-11-11T04:18:28;12.25;;;7.47;;
23068;SDS011;11702;50.856;4.348;2022-11-11T04:21:12;12.40;;;6.82;;
23068;SDS011;11702;50.856;4.348;2022-11-11T04:23:56;13.27;;;7.60;;
23068;SDS011;11702;50.856;4.348;2022-11-11T04:26:21;9.77;;;6.43;;
23068;SDS011;11702;50.856;4.348;2022-11-11T04:28:47;10.30;;;7.15;;
23068;SDS011;11702;50.856;4.348;2022-11-11T04:31:31;11.23;;;7.13;;
23068;SDS011;11702;50.856;4.348;2022-11-11T04:33:58;14.18;;;7.35;;
23068;SDS011;11702;50.856;4.348;2022-11-11T04:36:23;12.38;;;7.07;;
23068;SDS011;11702;50.856;4.348;2022-11-11T04:38:50;12.82;;;7.60;;
23068;SDS011;11702;50.856;4.348;2022-11-11T04:41:35;14.40;;;7.40;;
23068;SDS011;11702;50.856;4.348;2022-11-11T04:44:01;11.07;;;7.28;;
23068;SDS011;11702;50.856;4.348;2022-11-11T04:46:46;12.20;;;7.65;;
23068;SDS011;11702;50.856;4.348;2022-11-11T04:49:11;13.98;;;8.10;;
23068;SDS011;11702;50.856;4.348;2022-11-11T04:51:37;11.15;;;7.20;;
23068;SDS011;11702;50.856;4.348;2022-11-11T04:54:21;15.68;;;8.20;;
23068;SDS011;11702;50.856;4.348;2022-11-11T04:56:47;12.75;;;7.72;;
23068;SDS011;11702;50.856;4.348;2022-11-11T04:59:14;11.70;;;7.47;;
23068;SDS011;11702;50.856;4.348;2022-11-11T05:01:44;13.60;;;6.18;;
23068;SDS011;11702;50.856;4.348;2022-11-11T05:04:29;11.48;;;6.80;;
23068;SDS011;11702;50.856;4.348;2022-11-11T05:06:56;13.00;;;6.75;;
23068;SDS011;11702;50.856;4.348;2022-11-11T05:09:40;11.63;;;6.07;;
23068;SDS011;11702;50.856;4.348;2022-11-11T05:12:06;11.88;;;6.00;;
23068;SDS011;11702;50.856;4.348;2022-11-11T05:14:32;11.45;;;6.60;;
23068;SDS011;11702;50.856;4.348;2022-11-11T05:17:17;8.90;;;5.97;;
23068;SDS011;11702;50.856;4.348;2022-11-11T05:20:01;12.80;;;6.60;;
23068;SDS011;11702;50.856;4.348;2022-11-11T05:22:46;8.32;;;6.40;;
23068;SDS011;11702;50.856;4.348;2022-11-11T05:25:12;8.82;;;6.07;;
23068;SDS011;11702;50.856;4.348;2022-11-11T05:27:50;9.43;;;6.25;;
23068;SDS011;11702;50.856;4.348;2022-11-11T05:30:17;8.20;;;6.45;;
23068;SDS011;11702;50.856;4.348;2022-11-11T05:32:44;15.27;;;6.72;;
23068;SDS011;11702;50.856;4.348;2022-11-11T05:35:10;10.20;;;7.00;;
23068;SDS011;11702;50.856;4.348;2022-11-11T05:37:36;14.20;;;7.20;;
23068;SDS011;11702;50.856;4.348;2022-11-11T05:40:02;16.08;;;6.57;;
23068;SDS011;11702;50.856;4.348;2022-11-11T05:42:30;11.15;;;7.10;;
23068;SDS011;11702;50.856;4.348;2022-11-11T05:44:55;10.13;;;6.80;;
23068;SDS011;11702;50.856;4.348;2022-11-11T05:47:21;14.07;;;7.40;;
23068;SDS011;11702;50.856;4.348;2022-11-11T05:49:47;9.93;;;7.20;;
23068;SDS011;11702;50.856;4.348;2022-11-11T05:52:13;11.85;;;8.23;;
23068;SDS011;11702;50.856;4.348;2022-11-11T05:54:40;9.80;;;7.70;;
23068;SDS011;11702;50.856;4.348;2022-11-11T05:57:07;13.55;;;7.82;;
23068;SDS011;11702;50.856;4.348;2022-11-11T05:59:33;14.13;;;7.65;;
23068;SDS011;11702;50.856;4.348;2022-11-11T06:01:58;14.73;;;8.10;;
23068;SDS011;11702;50.856;4.348;2022-11-11T06:04:24;12.85;;;7.40;;
23068;SDS011;11702;50.856;4.348;2022-11-11T06:06:50;12.45;;;8.10;;
23068;SDS011;11702;50.856;4.348;2022-11-11T06:09:16;14.90;;;7.63;;
23068;SDS011;11702;50.856;4.348;2022-11-11T06:11:41;10.95;;;7.15;;
23068;SDS011;11702;50.856;4.348;2022-11-11T06:14:07;14.25;;;7.78;;
23068;SDS011;11702;50.856;4.348;2022-11-11T06:16:33;11.90;;;7.82;;
23068;SDS011;11702;50.856;4.348;2022-11-11T06:18:59;11.02;;;7.55;;
23068;SDS011;11702;50.856;4.348;2022-11-11T06:21:25;9.65;;;7.47;;
23068;SDS011;11702;50.856;4.348;2022-11-11T06:23:51;9.77;;;7.13;;
23068;SDS011;11702;50.856;4.348;2022-11-11T06:26:17;10.68;;;7.78;;
23068;SDS011;11702;50.856;4.348;2022-11-11T06:28:53;18.27;;;9.32;;
23068;SDS011;11702;50.856;4.348;2022-11-11T06:31:21;18.23;;;9.52;;
23068;SDS011;11702;50.856;4.348;2022-11-11T06:33:48;15.20;;;9.60;;
23068;SDS011;11702;50.856;4.348;2022-11-11T06:36:14;20.30;;;9.80;;
23068;SDS011;11702;50.856;4.348;2022-11-11T06:38:41;16.02;;;10.00;;
23068;SDS011;11702;50.856;4.348;2022-11-11T06:41:08;13.63;;;8.98;;
23068;SDS011;11702;50.856;4.348;2022-11-11T06:43:36;14.52;;;9.57;;
23068;SDS011;11702;50.856;4.348;2022-11-11T06:46:03;16.95;;;9.55;;
23068;SDS011;11702;50.856;4.348;2022-11-11T06:48:28;15.68;;;9.90;;
23068;SDS011;11702;50.856;4.348;2022-11-11T06:50:57;14.98;;;9.80;;
23068;SDS011;11702;50.856;4.348;2022-11-11T06:53:31;13.70;;;9.57;;
23068;SDS011;11702;50.856;4.348;2022-11-11T06:56:00;12.10;;;9.65;;
23068;SDS011;11702;50.856;4.348;2022-11-11T06:58:26;14.73;;;9.55;;
23068;SDS011;11702;50.856;4.348;2022-11-11T07:00:53;15.00;;;10.10;;
23068;SDS011;11702;50.856;4.348;2022-11-11T07:03:20;15.45;;;8.93;;
23068;SDS011;11702;50.856;4.348;2022-11-11T07:05:46;17.10;;;10.75;;
23068;SDS011;11702;50.856;4.348;2022-11-11T07:08:14;13.30;;;9.45;;
23068;SDS011;11702;50.856;4.348;2022-11-11T07:10:45;16.08;;;10.10;;
23068;SDS011;11702;50.856;4.348;2022-11-11T07:13:12;15.98;;;9.82;;
23068;SDS011;11702;50.856;4.348;2022-11-11T07:15:39;17.92;;;9.90;;
23068;SDS011;11702;50.856;4.348;2022-11-11T07:18:09;14.20;;;9.68;;
23068;SDS011;11702;50.856;4.348;2022-11-11T07:20:36;14.65;;;9.90;;
23068;SDS011;11702;50.856;4.348;2022-11-11T07:23:03;16.88;;;10.63;;
23068;SDS011;11702;50.856;4.348;2022-11-11T07:25:30;14.32;;;9.68;;
23068;SDS011;11702;50.856;4.348;2022-11-11T07:27:57;18.20;;;9.80;;
23068;SDS011;11702;50.856;4.348;2022-11-11T07:30:23;15.48;;;10.60;;
23068;SDS011;11702;50.856;4.348;2022-11-11T07:32:49;16.90;;;9.10;;
23068;SDS011;11702;50.856;4.348;2022-11-11T07:35:16;17.95;;;10.38;;
23068;SDS011;11702;50.856;4.348;2022-11-11T07:37:44;17.02;;;11.02;;
23068;SDS011;11702;50.856;4.348;2022-11-11T07:40:11;15.38;;;9.93;;
23068;SDS011;11702;50.856;4.348;2022-11-11T07:42:40;12.95;;;9.38;;
23068;SDS011;11702;50.856;4.348;2022-11-11T07:45:07;17.08;;;10.30;;
23068;SDS011;11702;50.856;4.348;2022-11-11T07:47:34;14.38;;;10.35;;
23068;SDS011;11702;50.856;4.348;2022-11-11T07:50:00;17.88;;;11.43;;
23068;SDS011;11702;50.856;4.348;2022-11-11T07:52:27;17.33;;;9.63;;
23068;SDS011;11702;50.856;4.348;2022-11-11T07:54:53;14.25;;;9.55;;
23068;SDS011;11702;50.856;4.348;2022-11-11T07:57:19;17.90;;;10.20;;
23068;SDS011;11702;50.856;4.348;2022-11-11T07:59:44;14.48;;;9.70;;
23068;SDS011;11702;50.856;4.348;2022-11-11T08:02:11;17.08;;;9.88;;
23068;SDS011;11702;50.856;4.348;2022-11-11T08:04:37;18.27;;;9.88;;
23068;SDS011;11702;50.856;4.348;2022-11-11T08:07:02;16.63;;;9.75;;
23068;SDS011;11702;50.856;4.348;2022-11-11T08:09:29;16.33;;;11.35;;
23068;SDS011;11702;50.856;4.348;2022-11-11T08:11:55;19.90;;;9.77;;
23068;SDS011;11702;50.856;4.348;2022-11-11T08:14:40;14.93;;;8.25;;
23068;SDS011;11702;50.856;4.348;2022-11-11T08:17:06;12.13;;;7.60;;
23068;SDS011;11702;50.856;4.348;2022-11-11T08:19:32;11.43;;;7.47;;
23068;SDS011;11702;50.856;4.348;2022-11-11T08:21:58;19.90;;;8.52;;
23068;SDS011;11702;50.856;4.348;2022-11-11T08:24:23;14.27;;;8.35;;
23068;SDS011;11702;50.856;4.348;2022-11-11T08:26:49;11.52;;;8.27;;
23068;SDS011;11702;50.856;4.348;2022-11-11T08:29:14;11.80;;;7.80;;
23068;SDS011;11702;50.856;4.348;2022-11-11T08:31:40;13.27;;;8.27;;
23068;SDS011;11702;50.856;4.348;2022-11-11T08:34:06;13.85;;;8.55;;
23068;SDS011;11702;50.856;4.348;2022-11-11T08:36:32;13.63;;;8.30;;
23068;SDS011;11702;50.856;4.348;2022-11-11T08:38:58;15.98;;;7.80;;
23068;SDS011;11702;50.856;4.348;2022-11-11T08:41:23;11.00;;;7.53;;
23068;SDS011;11702;50.856;4.348;2022-11-11T08:43:53;10.30;;;7.45;;
23068;SDS011;11702;50.856;4.348;2022-11-11T08:46:21;13.10;;;7.90;;
23068;SDS011;11702;50.856;4.348;2022-11-11T08:48:48;15.07;;;7.55;;
23068;SDS011;11702;50.856;4.348;2022-11-11T08:51:13;13.85;;;7.32;;
23068;SDS011;11702;50.856;4.348;2022-11-11T08:53:39;9.02;;;6.82;;
23068;SDS011;11702;50.856;4.348;2022-11-11T08:56:05;12.13;;;7.57;;
23068;SDS011;11702;50.856;4.348;2022-11-11T08:58:32;13.15;;;7.72;;
23068;SDS011;11702;50.856;4.348;2022-11-11T09:00:57;11.60;;;7.07;;
23068;SDS011;11702;50.856;4.348;2022-11-11T09:03:25;10.52;;;7.82;;
23068;SDS011;11702;50.856;4.348;2022-11-11T09:05:51;12.32;;;7.93;;
23068;SDS011;11702;50.856;4.348;2022-11-11T09:08:17;14.80;;;7.18;;
23068;SDS011;11702;50.856;4.348;2022-11-11T09:10:43;11.82;;;6.68;;
23068;SDS011;11702;50.856;4.348;2022-11-11T09:13:08;11.95;;;6.65;;
23068;SDS011;11702;50.856;4.348;2022-11-11T09:15:34;9.88;;;6.50;;
23068;SDS011;11702;50.856;4.348;2022-11-11T09:18:00;11.85;;;6.40;;
23068;SDS011;11702;50.856;4.348;2022-11-11T09:20:27;14.00;;;6.25;;
23068;SDS011;11702;50.856;4.348;2022-11-11T09:22:53;19.05;;;6.63;;
23068;SDS011;11702;50.856;4.348;2022-11-11T09:25:19;18.45;;;7.43;;
23068;SDS011;11702;50.856;4.348;2022-11-11T09:27:55;11.95;;;6.80;;
23068;SDS011;11702;50.856;4.348;2022-11-11T09:30:22;8.52;;;5.95;;
23068;SDS011;11702;50.856;4.348;2022-11-11T09:32:48;13.40;;;5.75;;
23068;SDS011;11702;50.856;4.348;2022-11-11T09:35:15;11.70;;;6.18;;
23068;SDS011;11702;50.856;4.348;2022-11-11T09:37:40;8.32;;;5.60;;
23068;SDS011;11702;50.856;4.348;2022-11-11T09:40:06;10.60;;;6.32;;
23068;SDS011;11702;50.856;4.348;2022-11-11T09:45:20;14.80;;;8.40;;
23068;SDS011;11702;50.856;4.348;2022-11-11T09:50:39;14.82;;;6.43;;
23068;SDS011;11702;50.856;4.348;2022-11-11T09:58:40;8.35;;;4.88;;
23068;SDS011;11702;50.856;4.348;2022-11-11T10:01:14;10.77;;;5.00;;
23068;SDS011;11702;50.856;4.348;2022-11-11T10:04:01;7.18;;;4.88;;
23068;SDS011;11702;50.856;4.348;2022-11-11T10:06:40;8.18;;;4.20;;
23068;SDS011;11702;50.856;4.348;2022-11-11T10:09:23;8.80;;;5.07;;
23068;SDS011;11702;50.856;4.348;2022-11-11T10:11:57;7.93;;;4.50;;
23068;SDS011;11702;50.856;4.348;2022-11-11T10:14:39;10.95;;;4.20;;
23068;SDS011;11702;50.856;4.348;2022-11-11T10:17:14;10.02;;;4.63;;
23068;SDS011;11702;50.856;4.348;2022-11-11T10:22:21;9.80;;;3.95;;
23068;SDS011;11702;50.856;4.348;2022-11-11T10:24:56;9.27;;;5.38;;
23068;SDS011;11702;50.856;4.348;2022-11-11T10:27:32;6.22;;;3.75;;
23068;SDS011;11702;50.856;4.348;2022-11-11T10:30:00;4.68;;;3.35;;
23068;SDS011;11702;50.856;4.348;2022-11-11T10:33:01;4.25;;;3.00;;
23068;SDS011;11702;50.856;4.348;2022-11-11T10:35:30;10.27;;;3.80;;
23068;SDS011;11702;50.856;4.348;2022-11-11T10:38:10;6.70;;;3.75;;
23068;SDS011;11702;50.856;4.348;2022-11-11T10:40:48;5.28;;;3.58;;
23068;SDS011;11702;50.856;4.348;2022-11-11T10:43:23;5.85;;;3.17;;
23068;SDS011;11702;50.856;4.348;2022-11-11T10:46:08;5.07;;;3.53;;
23068;SDS011;11702;50.856;4.348;2022-11-11T10:48:50;6.05;;;2.88;;
23068;SDS011;11702;50.856;4.348;2022-11-11T10:51:20;4.40;;;2.90;;
23068;SDS011;11702;50.856;4.348;2022-11-11T10:56:44;4.45;;;2.90;;
23068;SDS011;11702;50.856;4.348;2022-11-11T10:59:57;5.60;;;2.80;;
23068;SDS011;11702;50.856;4.348;2022-11-11T11:05:12;5.85;;;2.53;;
23068;SDS011;11702;50.856;4.348;2022-11-11T11:08:01;4.50;;;2.30;;
23068;SDS011;11702;50.856;4.348;2022-11-11T11:10:37;4.40;;;2.78;;
23068;SDS011;11702;50.856;4.348;2022-11-11T11:15:46;4.80;;;2.90;;
23068;SDS011;11702;50.856;4.348;2022-11-11T11:18:19;5.53;;;2.92;;
23068;SDS011;11702;50.856;4.348;2022-11-11T11:21:00;5.00;;;3.50;;
23068;SDS011;11702;50.856;4.348;2022-11-11T11:23:40;5.45;;;3.15;;
23068;SDS011;11702;50.856;4.348;2022-11-11T11:26:07;4.63;;;2.50;;
23068;SDS011;11702;50.856;4.348;2022-11-11T11:28:34;9.68;;;2.90;;
23068;SDS011;11702;50.856;4.348;2022-11-11T11:31:17;6.68;;;3.53;;
23068;SDS011;11702;50.856;4.348;2022-11-11T11:33:59;6.93;;;2.85;;
23068;SDS011;11702;50.856;4.348;2022-11-11T11:36:25;4.18;;;2.38;;
23068;SDS011;11702;50.856;4.348;2022-11-11T11:38:51;4.10;;;2.58;;
23068;SDS011;11702;50.856;4.348;2022-11-11T11:41:17;8.80;;;3.47;;
23068;SDS011;11702;50.856;4.348;2022-11-11T11:44:00;5.43;;;3.05;;
23068;SDS011;11702;50.856;4.348;2022-11-11T11:46:27;8.32;;;3.60;;
23068;SDS011;11702;50.856;4.348;2022-11-11T11:49:13;5.97;;;3.67;;
23068;SDS011;11702;50.856;4.348;2022-11-11T12:00:17;3.95;;;2.58;;
23068;SDS011;11702;50.856;4.348;2022-11-11T12:02:53;7.35;;;2.90;;
23068;SDS011;11702;50.856;4.348;2022-11-11T12:05:34;6.13;;;3.20;;
23068;SDS011;11702;50.856;4.348;2022-11-11T12:25:19;5.63;;;2.80;;
23068;SDS011;11702;50.856;4.348;2022-11-11T12:31:02;5.53;;;2.95;;
23068;SDS011;11702;50.856;4.348;2022-11-11T12:36:15;4.55;;;3.10;;
23068;SDS011;11702;50.856;4.348;2022-11-11T12:41:47;4.60;;;2.80;;
23068;SDS011;11702;50.856;4.348;2022-11-11T12:44:16;2.97;;;2.03;;
23068;SDS011;11702;50.856;4.348;2022-11-11T12:49:40;4.80;;;2.85;;
23068;SDS011;11702;50.856;4.348;2022-11-11T12:54:55;4.00;;;2.83;;
23068;SDS011;11702;50.856;4.348;2022-11-11T13:01:02;6.40;;;2.72;;
23068;SDS011;11702;50.856;4.348;2022-11-11T13:08:52;7.55;;;3.22;;
23068;SDS011;11702;50.856;4.348;2022-11-11T13:11:50;6.72;;;3.25;;
23068;SDS011;11702;50.856;4.348;2022-11-11T13:14:45;7.15;;;3.65;;
23068;SDS011;11702;50.856;4.348;2022-11-11T13:17:32;4.57;;;2.90;;
23068;SDS011;11702;50.856;4.348;2022-11-11T13:20:02;5.90;;;3.35;;
23068;SDS011;11702;50.856;4.348;2022-11-11T13:22:39;7.65;;;3.75;;
23068;SDS011;11702;50.856;4.348;2022-11-11T13:25:05;9.60;;;2.83;;
23068;SDS011;11702;50.856;4.348;2022-11-11T13:27:46;6.78;;;2.70;;
23068;SDS011;11702;50.856;4.348;2022-11-11T13:33:15;5.60;;;3.25;;
23068;SDS011;11702;50.856;4.348;2022-11-11T13:35:58;5.50;;;3.55;;
23068;SDS011;11702;50.856;4.348;2022-11-11T13:38:31;7.05;;;3.03;;
23068;SDS011;11702;50.856;4.348;2022-11-11T13:40:58;6.53;;;2.83;;
23068;SDS011;11702;50.856;4.348;2022-11-11T13:43:30;8.38;;;2.58;;
23068;SDS011;11702;50.856;4.348;2022-11-11T13:46:05;5.97;;;2.55;;
23068;SDS011;11702;50.856;4.348;2022-11-11T13:48:45;4.13;;;2.40;;
23068;SDS011;11702;50.856;4.348;2022-11-11T13:51:26;4.38;;;2.20;;
23068;SDS011;11702;50.856;4.348;2022-11-11T13:53:58;5.47;;;2.90;;
23068;SDS011;11702;50.856;4.348;2022-11-11T13:56:34;4.10;;;3.15;;
23068;SDS011;11702;50.856;4.348;2022-11-11T13:59:04;5.20;;;2.70;;
23068;SDS011;11702;50.856;4.348;2022-11-11T14:01:35;6.95;;;2.92;;
23068;SDS011;11702;50.856;4.348;2022-11-11T14:04:06;10.65;;;3.00;;
23068;SDS011;11702;50.856;4.348;2022-11-11T14:08:58;6.63;;;3.17;;
23068;SDS011;11702;50.856;4.348;2022-11-11T14:13:50;9.45;;;3.70;;
23068;SDS011;11702;50.856;4.348;2022-11-11T14:21:53;7.85;;;3.83;;
23068;SDS011;11702;50.856;4.348;2022-11-11T14:24:30;5.28;;;3.35;;
23068;SDS011;11702;50.856;4.348;2022-11-11T14:29:38;6.53;;;3.33;;
23068;SDS011;11702;50.856;4.348;2022-11-11T14:40:27;5.97;;;3.08;;
23068;SDS011;11702;50.856;4.348;2022-11-11T14:42:55;6.80;;;2.67;;
23068;SDS011;11702;50.856;4.348;2022-11-11T14:47:49;7.18;;;3.67;;
23068;SDS011;11702;50.856;4.348;2022-11-11T14:53:13;6.15;;;3.20;;
23068;SDS011;11702;50.856;4.348;2022-11-11T14:55:51;9.13;;;3.50;;
23068;SDS011;11702;50.856;4.348;2022-11-11T14:58:20;8.10;;;3.38;;
23068;SDS011;11702;50.856;4.348;2022-11-11T15:01:01;5.68;;;3.00;;
23068;SDS011;11702;50.856;4.348;2022-11-11T15:06:15;3.22;;;2.22;;
23068;SDS011;11702;50.856;4.348;2022-11-11T15:12:18;6.72;;;2.90;;
23068;SDS011;11702;50.856;4.348;2022-11-11T15:15:04;11.20;;;3.03;;
23068;SDS011;11702;50.856;4.348;2022-11-11T15:17:34;15.27;;;5.15;;
23068;SDS011;11702;50.856;4.348;2022-11-11T15:20:14;5.20;;;2.80;;
23068;SDS011;11702;50.856;4.348;2022-11-11T15:37:03;7.53;;;3.25;;
23068;SDS011;11702;50.856;4.348;2022-11-11T15:39:40;5.25;;;3.08;;
23068;SDS011;11702;50.856;4.348;2022-11-11T15:42:52;4.93;;;3.40;;
23068;SDS011;11702;50.856;4.348;2022-11-11T15:45:06;6.82;;;3.78;;
23068;SDS011;11702;50.856;4.348;2022-11-11T15:47:38;9.88;;;4.80;;
23068;SDS011;11702;50.856;4.348;2022-11-11T15:50:05;8.73;;;4.38;;
23068;SDS011;11702;50.856;4.348;2022-11-11T15:53:01;13.65;;;3.90;;
23068;SDS011;11702;50.856;4.348;2022-11-11T15:55:31;9.82;;;4.03;;
23068;SDS011;11702;50.856;4.348;2022-11-11T15:58:45;9.82;;;4.32;;
23068;SDS011;11702;50.856;4.348;2022-11-11T16:00:53;13.25;;;4.30;;
23068;SDS011;11702;50.856;4.348;2022-11-11T16:03:30;9.70;;;4.35;;
23068;SDS011;11702;50.856;4.348;2022-11-11T16:06:14;9.57;;;4.38;;
23068;SDS011;11702;50.856;4.348;2022-11-11T16:08:45;7.55;;;4.78;;
23068;SDS011;11702;50.856;4.348;2022-11-11T16:11:14;8.90;;;4.47;;
23068;SDS011;11702;50.856;4.348;2022-11-11T16:13:51;7.75;;;4.30;;
23068;SDS011;11702;50.856;4.348;2022-11-11T16:16:31;7.40;;;4.05;;
23068;SDS011;11702;50.856;4.348;2022-11-11T16:21:44;8.38;;;4.80;;
23068;SDS011;11702;50.856;4.348;2022-11-11T16:24:27;8.13;;;4.20;;
23068;SDS011;11702;50.856;4.348;2022-11-11T16:27:05;10.18;;;4.82;;
23068;SDS011;11702;50.856;4.348;2022-11-11T16:29:36;12.23;;;4.68;;
23068;SDS011;11702;50.856;4.348;2022-11-11T16:32:18;6.70;;;4.75;;
23068;SDS011;11702;50.856;4.348;2022-11-11T16:34:43;8.68;;;4.63;;
23068;SDS011;11702;50.856;4.348;2022-11-11T16:37:10;7.38;;;4.68;;
23068;SDS011;11702;50.856;4.348;2022-11-11T16:39:43;6.15;;;4.63;;
23068;SDS011;11702;50.856;4.348;2022-11-11T16:42:20;11.85;;;5.80;;
23068;SDS011;11702;50.856;4.348;2022-11-11T16:44:56;9.00;;;4.78;;
23068;SDS011;11702;50.856;4.348;2022-11-11T16:50:03;12.68;;;6.13;;
23068;SDS011;11702;50.856;4.348;2022-11-11T16:52:38;11.52;;;6.55;;
23068;SDS011;11702;50.856;4.348;2022-11-11T16:55:09;16.45;;;7.10;;
23068;SDS011;11702;50.856;4.348;2022-11-11T16:57:41;13.70;;;7.20;;
23068;SDS011;11702;50.856;4.348;2022-11-11T17:00:10;11.55;;;6.50;;
23068;SDS011;11702;50.856;4.348;2022-11-11T17:02:41;12.55;;;7.38;;
23068;SDS011;11702;50.856;4.348;2022-11-11T17:05:18;14.93;;;7.15;;
23068;SDS011;11702;50.856;4.348;2022-11-11T17:13:17;25.38;;;8.48;;
23068;SDS011;11702;50.856;4.348;2022-11-11T17:15:43;11.63;;;7.20;;
23068;SDS011;11702;50.856;4.348;2022-11-11T17:18:08;14.70;;;7.78;;
23068;SDS011;11702;50.856;4.348;2022-11-11T17:20:34;11.77;;;7.65;;